sensor_id;sensor_type;location;lat;lon;timestamp;P1;durP1;ratioP1;P2;durP2;ratioP2
21038;SDS011;10678;51.002;4.786;2024-02-26T00:00:34;3.75;;;1.23;;
21038;SDS011;10678;51.002;4.786;2024-02-26T00:03:00;4.05;;;1.00;;
21038;SDS011;10678;51.002;4.786;2024-02-26T00:05:26;3.25;;;1.05;;
21038;SDS011;10678;51.002;4.786;2024-02-26T00:07:52;3.28;;;1.15;;
21038;SDS011;10678;51.002;4.786;2024-02-26T00:10:18;2.53;;;1.02;;
21038;SDS011;10678;51.002;4.786;2024-02-26T00:12:43;3.15;;;1.00;;
21038;SDS011;10678;51.002;4.786;2024-02-26T00:15:09;2.22;;;0.80;;
21038;SDS011;10678;51.002;4.786;2024-02-26T00:17:35;4.10;;;1.20;;
21038;SDS011;10678;51.002;4.786;2024-02-26T00:20:04;3.40;;;1.05;;
21038;SDS011;10678;51.002;4.786;2024-02-26T00:22:33;5.03;;;1.00;;
21038;SDS011;10678;51.002;4.786;2024-02-26T00:24:59;2.38;;;0.80;;
21038;SDS011;10678;51.002;4.786;2024-02-26T00:27:25;4.43;;;0.88;;
21038;SDS011;10678;51.002;4.786;2024-02-26T00:29:51;2.70;;;0.85;;
21038;SDS011;10678;51.002;4.786;2024-02-26T00:32:16;2.45;;;0.90;;
21038;SDS011;10678;51.002;4.786;2024-02-26T00:34:42;3.08;;;0.80;;
21038;SDS011;10678;51.002;4.786;2024-02-26T00:37:07;4.20;;;0.85;;
21038;SDS011;10678;51.002;4.786;2024-02-26T00:39:33;3.83;;;1.20;;
21038;SDS011;10678;51.002;4.786;2024-02-26T00:41:59;3.50;;;1.05;;
21038;SDS011;10678;51.002;4.786;2024-02-26T00:44:24;1.95;;;0.80;;
21038;SDS011;10678;51.002;4.786;2024-02-26T00:46:50;5.35;;;1.17;;
21038;SDS011;10678;51.002;4.786;2024-02-26T00:49:15;4.95;;;1.02;;
21038;SDS011;10678;51.002;4.786;2024-02-26T00:51:41;1.77;;;0.80;;
21038;SDS011;10678;51.002;4.786;2024-02-26T00:54:07;3.30;;;0.88;;
21038;SDS011;10678;51.002;4.786;2024-02-26T00:56:32;2.38;;;1.08;;
21038;SDS011;10678;51.002;4.786;2024-02-26T00:58:58;5.32;;;1.05;;
21038;SDS011;10678;51.002;4.786;2024-02-26T01:01:24;2.63;;;0.90;;
21038;SDS011;10678;51.002;4.786;2024-02-26T01:03:49;2.60;;;0.80;;
21038;SDS011;10678;51.002;4.786;2024-02-26T01:06:15;2.80;;;1.02;;
21038;SDS011;10678;51.002;4.786;2024-02-26T01:08:41;4.13;;;1.20;;
21038;SDS011;10678;51.002;4.786;2024-02-26T01:11:06;2.03;;;0.90;;
21038;SDS011;10678;51.002;4.786;2024-02-26T01:13:32;5.70;;;0.98;;
21038;SDS011;10678;51.002;4.786;2024-02-26T01:15:58;3.15;;;1.23;;
21038;SDS011;10678;51.002;4.786;2024-02-26T01:18:25;2.22;;;1.00;;
21038;SDS011;10678;51.002;4.786;2024-02-26T01:20:51;4.93;;;1.07;;
21038;SDS011;10678;51.002;4.786;2024-02-26T01:23:19;5.72;;;1.50;;
21038;SDS011;10678;51.002;4.786;2024-02-26T01:25:45;4.15;;;1.08;;
21038;SDS011;10678;51.002;4.786;2024-02-26T01:28:10;1.92;;;0.90;;
21038;SDS011;10678;51.002;4.786;2024-02-26T01:30:36;2.90;;;1.05;;
21038;SDS011;10678;51.002;4.786;2024-02-26T01:33:02;2.75;;;0.88;;
21038;SDS011;10678;51.002;4.786;2024-02-26T01:35:28;1.88;;;0.90;;
21038;SDS011;10678;51.002;4.786;2024-02-26T01:37:54;5.30;;;1.33;;
21038;SDS011;10678;51.002;4.786;2024-02-26T01:40:20;4.00;;;1.27;;
21038;SDS011;10678;51.002;4.786;2024-02-26T01:42:46;2.65;;;0.90;;
21038;SDS011;10678;51.002;4.786;2024-02-26T01:45:16;4.63;;;1.17;;
21038;SDS011;10678;51.002;4.786;2024-02-26T01:47:50;3.83;;;1.10;;
21038;SDS011;10678;51.002;4.786;2024-02-26T01:50:16;2.47;;;1.00;;
21038;SDS011;10678;51.002;4.786;2024-02-26T01:52:43;4.57;;;1.33;;
21038;SDS011;10678;51.002;4.786;2024-02-26T01:55:14;4.35;;;1.17;;
21038;SDS011;10678;51.002;4.786;2024-02-26T01:57:41;2.72;;;1.30;;
21038;SDS011;10678;51.002;4.786;2024-02-26T02:00:08;2.85;;;1.20;;
21038;SDS011;10678;51.002;4.786;2024-02-26T02:02:35;3.17;;;1.25;;
21038;SDS011;10678;51.002;4.786;2024-02-26T02:05:01;4.40;;;1.08;;
21038;SDS011;10678;51.002;4.786;2024-02-26T02:07:27;3.63;;;1.23;;
21038;SDS011;10678;51.002;4.786;2024-02-26T02:09:54;2.63;;;0.93;;
21038;SDS011;10678;51.002;4.786;2024-02-26T02:12:19;4.53;;;1.20;;
21038;SDS011;10678;51.002;4.786;2024-02-26T02:14:46;3.08;;;1.10;;
21038;SDS011;10678;51.002;4.786;2024-02-26T02:17:12;5.17;;;1.07;;
21038;SDS011;10678;51.002;4.786;2024-02-26T02:19:37;2.87;;;1.07;;
21038;SDS011;10678;51.002;4.786;2024-02-26T02:22:03;4.60;;;1.30;;
21038;SDS011;10678;51.002;4.786;2024-02-26T02:24:29;4.00;;;1.63;;
21038;SDS011;10678;51.002;4.786;2024-02-26T02:26:55;5.93;;;1.60;;
21038;SDS011;10678;51.002;4.786;2024-02-26T02:29:20;1.83;;;1.00;;
21038;SDS011;10678;51.002;4.786;2024-02-26T02:31:46;4.83;;;1.57;;
21038;SDS011;10678;51.002;4.786;2024-02-26T02:34:12;5.88;;;1.58;;
21038;SDS011;10678;51.002;4.786;2024-02-26T02:36:54;4.50;;;1.88;;
21038;SDS011;10678;51.002;4.786;2024-02-26T02:39:20;4.80;;;1.50;;
21038;SDS011;10678;51.002;4.786;2024-02-26T02:41:46;4.07;;;1.60;;
21038;SDS011;10678;51.002;4.786;2024-02-26T02:44:12;7.87;;;1.70;;
21038;SDS011;10678;51.002;4.786;2024-02-26T02:46:38;5.30;;;2.13;;
21038;SDS011;10678;51.002;4.786;2024-02-26T02:49:03;4.75;;;1.90;;
21038;SDS011;10678;51.002;4.786;2024-02-26T02:51:29;4.97;;;2.20;;
21038;SDS011;10678;51.002;4.786;2024-02-26T02:53:55;4.75;;;1.70;;
21038;SDS011;10678;51.002;4.786;2024-02-26T02:56:20;4.32;;;1.70;;
21038;SDS011;10678;51.002;4.786;2024-02-26T02:58:46;5.28;;;1.70;;
21038;SDS011;10678;51.002;4.786;2024-02-26T03:01:13;4.40;;;1.93;;
21038;SDS011;10678;51.002;4.786;2024-02-26T03:03:38;9.55;;;2.38;;
21038;SDS011;10678;51.002;4.786;2024-02-26T03:06:04;5.22;;;2.25;;
21038;SDS011;10678;51.002;4.786;2024-02-26T03:08:29;4.57;;;2.20;;
21038;SDS011;10678;51.002;4.786;2024-02-26T03:10:55;5.63;;;2.20;;
21038;SDS011;10678;51.002;4.786;2024-02-26T03:13:23;5.43;;;2.45;;
21038;SDS011;10678;51.002;4.786;2024-02-26T03:15:48;6.05;;;2.50;;
21038;SDS011;10678;51.002;4.786;2024-02-26T03:18:14;4.53;;;2.43;;
21038;SDS011;10678;51.002;4.786;2024-02-26T03:20:40;8.03;;;3.00;;
21038;SDS011;10678;51.002;4.786;2024-02-26T03:23:05;6.10;;;2.80;;
21038;SDS011;10678;51.002;4.786;2024-02-26T03:25:31;7.28;;;2.90;;
21038;SDS011;10678;51.002;4.786;2024-02-26T03:27:56;7.10;;;2.93;;
21038;SDS011;10678;51.002;4.786;2024-02-26T03:30:22;6.00;;;3.30;;
21038;SDS011;10678;51.002;4.786;2024-02-26T03:32:47;5.87;;;3.10;;
21038;SDS011;10678;51.002;4.786;2024-02-26T03:35:13;6.57;;;2.72;;
21038;SDS011;10678;51.002;4.786;2024-02-26T03:37:39;6.38;;;3.25;;
21038;SDS011;10678;51.002;4.786;2024-02-26T03:40:05;5.83;;;3.30;;
21038;SDS011;10678;51.002;4.786;2024-02-26T03:42:31;6.83;;;3.30;;
21038;SDS011;10678;51.002;4.786;2024-02-26T03:44:56;5.87;;;3.10;;
21038;SDS011;10678;51.002;4.786;2024-02-26T03:47:23;6.50;;;3.10;;
21038;SDS011;10678;51.002;4.786;2024-02-26T03:49:48;5.47;;;2.70;;
21038;SDS011;10678;51.002;4.786;2024-02-26T03:52:14;6.00;;;3.13;;
21038;SDS011;10678;51.002;4.786;2024-02-26T03:54:40;5.43;;;3.10;;
21038;SDS011;10678;51.002;4.786;2024-02-26T03:57:05;5.73;;;3.17;;
21038;SDS011;10678;51.002;4.786;2024-02-26T03:59:31;5.83;;;2.67;;
21038;SDS011;10678;51.002;4.786;2024-02-26T04:01:57;5.87;;;2.77;;
21038;SDS011;10678;51.002;4.786;2024-02-26T04:04:22;7.83;;;3.13;;
21038;SDS011;10678;51.002;4.786;2024-02-26T04:06:48;5.27;;;2.57;;
21038;SDS011;10678;51.002;4.786;2024-02-26T04:09:13;8.10;;;3.40;;
21038;SDS011;10678;51.002;4.786;2024-02-26T04:11:39;5.47;;;2.87;;
21038;SDS011;10678;51.002;4.786;2024-02-26T04:14:05;5.57;;;2.87;;
21038;SDS011;10678;51.002;4.786;2024-02-26T04:16:33;9.57;;;3.63;;
21038;SDS011;10678;51.002;4.786;2024-02-26T04:19:02;5.77;;;3.00;;
21038;SDS011;10678;51.002;4.786;2024-02-26T04:21:27;7.67;;;3.73;;
21038;SDS011;10678;51.002;4.786;2024-02-26T04:23:53;6.37;;;3.47;;
21038;SDS011;10678;51.002;4.786;2024-02-26T04:26:20;7.83;;;3.90;;
21038;SDS011;10678;51.002;4.786;2024-02-26T04:28:46;6.40;;;3.30;;
21038;SDS011;10678;51.002;4.786;2024-02-26T04:31:12;5.47;;;3.00;;
21038;SDS011;10678;51.002;4.786;2024-02-26T04:33:37;5.83;;;3.27;;
21038;SDS011;10678;51.002;4.786;2024-02-26T04:36:03;8.93;;;3.67;;
21038;SDS011;10678;51.002;4.786;2024-02-26T04:38:29;8.03;;;4.13;;
21038;SDS011;10678;51.002;4.786;2024-02-26T04:40:55;6.77;;;3.97;;
21038;SDS011;10678;51.002;4.786;2024-02-26T04:43:20;7.05;;;4.53;;
21038;SDS011;10678;51.002;4.786;2024-02-26T04:45:46;10.25;;;5.22;;
21038;SDS011;10678;51.002;4.786;2024-02-26T04:48:11;12.98;;;6.00;;
21038;SDS011;10678;51.002;4.786;2024-02-26T04:50:37;10.60;;;5.90;;
21038;SDS011;10678;51.002;4.786;2024-02-26T04:53:03;10.40;;;5.93;;
21038;SDS011;10678;51.002;4.786;2024-02-26T04:55:28;10.60;;;6.10;;
21038;SDS011;10678;51.002;4.786;2024-02-26T04:57:54;10.45;;;6.03;;
21038;SDS011;10678;51.002;4.786;2024-02-26T05:00:20;9.00;;;5.77;;
21038;SDS011;10678;51.002;4.786;2024-02-26T05:02:45;12.60;;;6.07;;
21038;SDS011;10678;51.002;4.786;2024-02-26T05:05:11;12.37;;;6.23;;
21038;SDS011;10678;51.002;4.786;2024-02-26T05:07:40;12.70;;;6.07;;
21038;SDS011;10678;51.002;4.786;2024-02-26T05:10:10;10.97;;;6.30;;
21038;SDS011;10678;51.002;4.786;2024-02-26T05:12:36;9.43;;;5.60;;
21038;SDS011;10678;51.002;4.786;2024-02-26T05:15:02;11.53;;;5.87;;
21038;SDS011;10678;51.002;4.786;2024-02-26T05:17:28;12.98;;;5.82;;
21038;SDS011;10678;51.002;4.786;2024-02-26T05:19:53;11.63;;;5.17;;
21038;SDS011;10678;51.002;4.786;2024-02-26T05:22:19;8.25;;;5.07;;
21038;SDS011;10678;51.002;4.786;2024-02-26T05:24:45;10.52;;;5.50;;
21038;SDS011;10678;51.002;4.786;2024-02-26T05:27:10;10.90;;;5.70;;
21038;SDS011;10678;51.002;4.786;2024-02-26T05:29:37;9.80;;;5.40;;
21038;SDS011;10678;51.002;4.786;2024-02-26T05:32:03;10.60;;;5.73;;
21038;SDS011;10678;51.002;4.786;2024-02-26T05:34:30;9.80;;;5.77;;
21038;SDS011;10678;51.002;4.786;2024-02-26T05:36:55;12.63;;;5.50;;
21038;SDS011;10678;51.002;4.786;2024-02-26T05:39:21;8.50;;;5.63;;
21038;SDS011;10678;51.002;4.786;2024-02-26T05:41:47;10.27;;;5.33;;
21038;SDS011;10678;51.002;4.786;2024-02-26T05:44:14;9.03;;;5.30;;
21038;SDS011;10678;51.002;4.786;2024-02-26T05:46:40;10.97;;;5.57;;
21038;SDS011;10678;51.002;4.786;2024-02-26T05:49:07;8.53;;;5.30;;
21038;SDS011;10678;51.002;4.786;2024-02-26T05:51:32;9.57;;;5.70;;
21038;SDS011;10678;51.002;4.786;2024-02-26T05:53:58;7.73;;;5.03;;
21038;SDS011;10678;51.002;4.786;2024-02-26T05:56:23;8.57;;;5.50;;
21038;SDS011;10678;51.002;4.786;2024-02-26T05:58:49;9.27;;;5.37;;
21038;SDS011;10678;51.002;4.786;2024-02-26T06:01:16;8.90;;;5.17;;
21038;SDS011;10678;51.002;4.786;2024-02-26T06:03:42;8.87;;;6.33;;
21038;SDS011;10678;51.002;4.786;2024-02-26T06:06:08;9.17;;;5.93;;
21038;SDS011;10678;51.002;4.786;2024-02-26T06:08:34;9.07;;;6.60;;
21038;SDS011;10678;51.002;4.786;2024-02-26T06:11:04;12.07;;;6.83;;
21038;SDS011;10678;51.002;4.786;2024-02-26T06:13:31;8.77;;;6.37;;
21038;SDS011;10678;51.002;4.786;2024-02-26T06:15:57;9.93;;;6.10;;
21038;SDS011;10678;51.002;4.786;2024-02-26T06:18:22;9.97;;;6.90;;
21038;SDS011;10678;51.002;4.786;2024-02-26T06:20:48;9.90;;;7.10;;
21038;SDS011;10678;51.002;4.786;2024-02-26T06:23:14;11.90;;;8.03;;
21038;SDS011;10678;51.002;4.786;2024-02-26T06:25:39;11.03;;;7.07;;
21038;SDS011;10678;51.002;4.786;2024-02-26T06:28:07;10.67;;;6.83;;
21038;SDS011;10678;51.002;4.786;2024-02-26T06:30:33;12.53;;;7.00;;
21038;SDS011;10678;51.002;4.786;2024-02-26T06:32:59;10.03;;;7.00;;
21038;SDS011;10678;51.002;4.786;2024-02-26T06:35:25;9.77;;;6.53;;
21038;SDS011;10678;51.002;4.786;2024-02-26T06:37:50;11.17;;;7.30;;
21038;SDS011;10678;51.002;4.786;2024-02-26T06:40:18;9.50;;;6.90;;
21038;SDS011;10678;51.002;4.786;2024-02-26T06:42:44;9.70;;;7.00;;
21038;SDS011;10678;51.002;4.786;2024-02-26T06:45:09;11.30;;;7.37;;
21038;SDS011;10678;51.002;4.786;2024-02-26T06:47:35;11.73;;;7.93;;
21038;SDS011;10678;51.002;4.786;2024-02-26T06:50:01;9.53;;;7.37;;
21038;SDS011;10678;51.002;4.786;2024-02-26T06:52:26;13.90;;;8.87;;
21038;SDS011;10678;51.002;4.786;2024-02-26T06:54:52;14.93;;;7.93;;
21038;SDS011;10678;51.002;4.786;2024-02-26T06:57:21;10.27;;;7.50;;
21038;SDS011;10678;51.002;4.786;2024-02-26T06:59:47;12.23;;;7.30;;
21038;SDS011;10678;51.002;4.786;2024-02-26T07:02:13;10.33;;;7.30;;
21038;SDS011;10678;51.002;4.786;2024-02-26T07:04:39;10.57;;;7.43;;
21038;SDS011;10678;51.002;4.786;2024-02-26T07:07:05;11.83;;;7.80;;
21038;SDS011;10678;51.002;4.786;2024-02-26T07:09:32;10.67;;;7.20;;
21038;SDS011;10678;51.002;4.786;2024-02-26T07:11:57;14.00;;;8.63;;
21038;SDS011;10678;51.002;4.786;2024-02-26T07:14:23;10.97;;;7.63;;
21038;SDS011;10678;51.002;4.786;2024-02-26T07:16:49;11.73;;;8.17;;
21038;SDS011;10678;51.002;4.786;2024-02-26T07:19:15;10.97;;;7.57;;
21038;SDS011;10678;51.002;4.786;2024-02-26T07:21:41;10.40;;;7.10;;
21038;SDS011;10678;51.002;4.786;2024-02-26T07:24:06;11.57;;;7.37;;
21038;SDS011;10678;51.002;4.786;2024-02-26T07:26:32;9.73;;;7.67;;
21038;SDS011;10678;51.002;4.786;2024-02-26T07:28:57;11.80;;;7.37;;
21038;SDS011;10678;51.002;4.786;2024-02-26T07:31:23;10.47;;;7.67;;
21038;SDS011;10678;51.002;4.786;2024-02-26T07:33:49;10.03;;;7.60;;
21038;SDS011;10678;51.002;4.786;2024-02-26T07:36:14;12.57;;;8.17;;
21038;SDS011;10678;51.002;4.786;2024-02-26T07:38:40;9.33;;;7.07;;
21038;SDS011;10678;51.002;4.786;2024-02-26T07:41:06;10.93;;;7.43;;
21038;SDS011;10678;51.002;4.786;2024-02-26T07:43:31;12.77;;;8.20;;
21038;SDS011;10678;51.002;4.786;2024-02-26T07:45:57;9.90;;;6.90;;
21038;SDS011;10678;51.002;4.786;2024-02-26T07:48:23;9.67;;;7.43;;
21038;SDS011;10678;51.002;4.786;2024-02-26T07:50:48;12.27;;;7.18;;
21038;SDS011;10678;51.002;4.786;2024-02-26T07:53:14;9.80;;;6.77;;
21038;SDS011;10678;51.002;4.786;2024-02-26T07:55:40;10.13;;;7.83;;
21038;SDS011;10678;51.002;4.786;2024-02-26T07:58:05;10.67;;;7.30;;
21038;SDS011;10678;51.002;4.786;2024-02-26T08:00:31;10.60;;;7.70;;
21038;SDS011;10678;51.002;4.786;2024-02-26T08:02:57;9.47;;;7.07;;
21038;SDS011;10678;51.002;4.786;2024-02-26T08:05:22;10.20;;;6.73;;
21038;SDS011;10678;51.002;4.786;2024-02-26T08:07:48;12.50;;;8.17;;
21038;SDS011;10678;51.002;4.786;2024-02-26T08:10:13;12.40;;;8.30;;
21038;SDS011;10678;51.002;4.786;2024-02-26T08:12:39;13.50;;;8.17;;
21038;SDS011;10678;51.002;4.786;2024-02-26T08:15:05;11.02;;;8.38;;
21038;SDS011;10678;51.002;4.786;2024-02-26T08:17:31;10.13;;;7.63;;
21038;SDS011;10678;51.002;4.786;2024-02-26T08:19:58;9.57;;;7.07;;
21038;SDS011;10678;51.002;4.786;2024-02-26T08:22:24;13.43;;;8.40;;
21038;SDS011;10678;51.002;4.786;2024-02-26T08:24:49;11.43;;;8.13;;
21038;SDS011;10678;51.002;4.786;2024-02-26T08:27:15;11.37;;;7.70;;
21038;SDS011;10678;51.002;4.786;2024-02-26T08:29:40;10.17;;;7.73;;
21038;SDS011;10678;51.002;4.786;2024-02-26T08:32:06;10.20;;;7.87;;
21038;SDS011;10678;51.002;4.786;2024-02-26T08:34:32;11.77;;;8.20;;
21038;SDS011;10678;51.002;4.786;2024-02-26T08:36:58;12.97;;;8.97;;
21038;SDS011;10678;51.002;4.786;2024-02-26T08:39:23;11.67;;;8.20;;
21038;SDS011;10678;51.002;4.786;2024-02-26T08:41:50;12.43;;;8.40;;
21038;SDS011;10678;51.002;4.786;2024-02-26T08:44:16;11.27;;;8.20;;
21038;SDS011;10678;51.002;4.786;2024-02-26T08:46:42;9.73;;;7.00;;
21038;SDS011;10678;51.002;4.786;2024-02-26T08:49:07;11.20;;;7.50;;
21038;SDS011;10678;51.002;4.786;2024-02-26T08:51:33;11.00;;;7.97;;
21038;SDS011;10678;51.002;4.786;2024-02-26T08:53:59;10.67;;;8.23;;
21038;SDS011;10678;51.002;4.786;2024-02-26T08:56:24;10.70;;;7.90;;
21038;SDS011;10678;51.002;4.786;2024-02-26T08:58:50;10.20;;;7.33;;
21038;SDS011;10678;51.002;4.786;2024-02-26T09:01:18;11.23;;;7.97;;
21038;SDS011;10678;51.002;4.786;2024-02-26T09:03:44;10.90;;;8.53;;
21038;SDS011;10678;51.002;4.786;2024-02-26T09:06:09;10.90;;;7.67;;
21038;SDS011;10678;51.002;4.786;2024-02-26T09:08:37;10.63;;;7.87;;
21038;SDS011;10678;51.002;4.786;2024-02-26T09:11:02;9.27;;;7.37;;
21038;SDS011;10678;51.002;4.786;2024-02-26T09:13:28;10.47;;;7.47;;
21038;SDS011;10678;51.002;4.786;2024-02-26T09:15:54;11.47;;;8.30;;
21038;SDS011;10678;51.002;4.786;2024-02-26T09:18:20;10.90;;;7.87;;
21038;SDS011;10678;51.002;4.786;2024-02-26T09:20:45;13.07;;;8.33;;
21038;SDS011;10678;51.002;4.786;2024-02-26T09:23:11;10.37;;;7.77;;
21038;SDS011;10678;51.002;4.786;2024-02-26T09:25:37;12.90;;;8.30;;
21038;SDS011;10678;51.002;4.786;2024-02-26T09:28:03;11.77;;;7.50;;
21038;SDS011;10678;51.002;4.786;2024-02-26T09:30:28;11.67;;;7.33;;
21038;SDS011;10678;51.002;4.786;2024-02-26T09:32:54;9.43;;;6.90;;
21038;SDS011;10678;51.002;4.786;2024-02-26T09:35:20;9.73;;;7.03;;
21038;SDS011;10678;51.002;4.786;2024-02-26T09:37:46;10.63;;;7.37;;
21038;SDS011;10678;51.002;4.786;2024-02-26T09:40:14;10.13;;;7.40;;
21038;SDS011;10678;51.002;4.786;2024-02-26T09:42:43;10.77;;;7.60;;
21038;SDS011;10678;51.002;4.786;2024-02-26T09:45:10;11.30;;;7.83;;
21038;SDS011;10678;51.002;4.786;2024-02-26T09:47:42;9.30;;;6.77;;
21038;SDS011;10678;51.002;4.786;2024-02-26T09:50:12;12.60;;;6.47;;
21038;SDS011;10678;51.002;4.786;2024-02-26T09:52:40;9.00;;;6.67;;
21038;SDS011;10678;51.002;4.786;2024-02-26T09:55:07;8.60;;;6.20;;
21038;SDS011;10678;51.002;4.786;2024-02-26T09:57:35;10.93;;;7.03;;
21038;SDS011;10678;51.002;4.786;2024-02-26T10:00:03;8.07;;;5.17;;
21038;SDS011;10678;51.002;4.786;2024-02-26T10:02:33;8.67;;;6.07;;
21038;SDS011;10678;51.002;4.786;2024-02-26T10:05:01;8.20;;;5.87;;
21038;SDS011;10678;51.002;4.786;2024-02-26T10:07:30;8.27;;;5.33;;
21038;SDS011;10678;51.002;4.786;2024-02-26T10:09:56;10.83;;;6.00;;
21038;SDS011;10678;51.002;4.786;2024-02-26T10:12:22;9.47;;;5.30;;
21038;SDS011;10678;51.002;4.786;2024-02-26T10:14:50;9.63;;;5.93;;
21038;SDS011;10678;51.002;4.786;2024-02-26T10:17:16;9.03;;;5.50;;
21038;SDS011;10678;51.002;4.786;2024-02-26T10:19:43;8.13;;;5.67;;
21038;SDS011;10678;51.002;4.786;2024-02-26T10:22:09;7.60;;;4.67;;
21038;SDS011;10678;51.002;4.786;2024-02-26T10:24:35;9.87;;;5.20;;
21038;SDS011;10678;51.002;4.786;2024-02-26T10:27:01;8.13;;;5.00;;
21038;SDS011;10678;51.002;4.786;2024-02-26T10:29:27;7.93;;;5.43;;
21038;SDS011;10678;51.002;4.786;2024-02-26T10:31:53;8.20;;;5.37;;
21038;SDS011;10678;51.002;4.786;2024-02-26T10:34:19;9.27;;;5.43;;
21038;SDS011;10678;51.002;4.786;2024-02-26T10:36:46;8.90;;;5.07;;
21038;SDS011;10678;51.002;4.786;2024-02-26T10:39:12;7.40;;;5.23;;
21038;SDS011;10678;51.002;4.786;2024-02-26T10:41:41;7.07;;;4.33;;
21038;SDS011;10678;51.002;4.786;2024-02-26T10:44:09;7.23;;;4.73;;
21038;SDS011;10678;51.002;4.786;2024-02-26T10:46:36;7.33;;;4.70;;
21038;SDS011;10678;51.002;4.786;2024-02-26T10:49:02;6.17;;;4.07;;
21038;SDS011;10678;51.002;4.786;2024-02-26T10:51:28;6.77;;;4.40;;
21038;SDS011;10678;51.002;4.786;2024-02-26T10:53:56;6.97;;;3.90;;
21038;SDS011;10678;51.002;4.786;2024-02-26T10:56:27;7.33;;;4.10;;
21038;SDS011;10678;51.002;4.786;2024-02-26T10:58:57;6.43;;;4.00;;
21038;SDS011;10678;51.002;4.786;2024-02-26T11:01:23;7.13;;;4.70;;
21038;SDS011;10678;51.002;4.786;2024-02-26T11:03:50;6.83;;;4.27;;
21038;SDS011;10678;51.002;4.786;2024-02-26T11:06:17;6.57;;;3.87;;
21038;SDS011;10678;51.002;4.786;2024-02-26T11:08:47;5.93;;;3.83;;
21038;SDS011;10678;51.002;4.786;2024-02-26T11:11:14;7.43;;;4.30;;
21038;SDS011;10678;51.002;4.786;2024-02-26T11:13:41;6.23;;;3.83;;
21038;SDS011;10678;51.002;4.786;2024-02-26T11:16:13;8.13;;;4.00;;
21038;SDS011;10678;51.002;4.786;2024-02-26T11:18:39;6.00;;;3.60;;
21038;SDS011;10678;51.002;4.786;2024-02-26T11:21:07;6.93;;;4.00;;
21038;SDS011;10678;51.002;4.786;2024-02-26T11:23:33;6.07;;;3.67;;
21038;SDS011;10678;51.002;4.786;2024-02-26T11:26:02;6.33;;;3.83;;
21038;SDS011;10678;51.002;4.786;2024-02-26T11:28:29;7.47;;;4.23;;
21038;SDS011;10678;51.002;4.786;2024-02-26T11:30:57;6.30;;;4.10;;
21038;SDS011;10678;51.002;4.786;2024-02-26T11:33:25;6.17;;;3.73;;
21038;SDS011;10678;51.002;4.786;2024-02-26T11:35:52;6.50;;;3.97;;
21038;SDS011;10678;51.002;4.786;2024-02-26T11:38:22;7.97;;;3.90;;
21038;SDS011;10678;51.002;4.786;2024-02-26T11:40:50;6.10;;;3.90;;
21038;SDS011;10678;51.002;4.786;2024-02-26T11:43:17;6.03;;;3.93;;
21038;SDS011;10678;51.002;4.786;2024-02-26T11:48:13;6.10;;;3.70;;
21038;SDS011;10678;51.002;4.786;2024-02-26T11:50:40;6.53;;;4.03;;
21038;SDS011;10678;51.002;4.786;2024-02-26T11:59:37;5.43;;;3.63;;
21038;SDS011;10678;51.002;4.786;2024-02-26T12:02:02;6.97;;;3.70;;
21038;SDS011;10678;51.002;4.786;2024-02-26T12:04:29;6.17;;;4.07;;
21038;SDS011;10678;51.002;4.786;2024-02-26T12:06:56;6.57;;;4.30;;
21038;SDS011;10678;51.002;4.786;2024-02-26T12:12:07;6.47;;;4.10;;
21038;SDS011;10678;51.002;4.786;2024-02-26T12:14:37;5.73;;;3.77;;
21038;SDS011;10678;51.002;4.786;2024-02-26T12:17:20;6.00;;;4.10;;
21038;SDS011;10678;51.002;4.786;2024-02-26T12:19:50;6.20;;;3.97;;
21038;SDS011;10678;51.002;4.786;2024-02-26T12:22:18;6.23;;;3.87;;
21038;SDS011;10678;51.002;4.786;2024-02-26T12:24:44;5.40;;;3.37;;
21038;SDS011;10678;51.002;4.786;2024-02-26T12:27:09;5.37;;;3.40;;
21038;SDS011;10678;51.002;4.786;2024-02-26T12:29:35;7.50;;;3.50;;
21038;SDS011;10678;51.002;4.786;2024-02-26T12:32:01;7.73;;;3.60;;
21038;SDS011;10678;51.002;4.786;2024-02-26T12:34:29;6.20;;;3.57;;
21038;SDS011;10678;51.002;4.786;2024-02-26T12:36:54;5.83;;;3.10;;
21038;SDS011;10678;51.002;4.786;2024-02-26T12:39:20;7.67;;;3.57;;
21038;SDS011;10678;51.002;4.786;2024-02-26T12:41:46;7.17;;;3.67;;
21038;SDS011;10678;51.002;4.786;2024-02-26T12:44:18;6.37;;;3.70;;
21038;SDS011;10678;51.002;4.786;2024-02-26T12:46:49;5.90;;;3.80;;
21038;SDS011;10678;51.002;4.786;2024-02-26T12:49:15;6.87;;;3.83;;
21038;SDS011;10678;51.002;4.786;2024-02-26T12:51:43;6.57;;;3.50;;
21038;SDS011;10678;51.002;4.786;2024-02-26T12:54:09;6.30;;;3.80;;
21038;SDS011;10678;51.002;4.786;2024-02-26T12:56:35;6.17;;;3.73;;
21038;SDS011;10678;51.002;4.786;2024-02-26T12:59:01;7.13;;;4.17;;
21038;SDS011;10678;51.002;4.786;2024-02-26T13:01:28;6.27;;;4.13;;
21038;SDS011;10678;51.002;4.786;2024-02-26T13:03:55;6.23;;;4.03;;
21038;SDS011;10678;51.002;4.786;2024-02-26T13:06:21;7.60;;;4.43;;
21038;SDS011;10678;51.002;4.786;2024-02-26T13:08:48;7.37;;;4.73;;
21038;SDS011;10678;51.002;4.786;2024-02-26T13:11:14;7.37;;;4.40;;
21038;SDS011;10678;51.002;4.786;2024-02-26T13:13:40;8.13;;;5.47;;
21038;SDS011;10678;51.002;4.786;2024-02-26T13:16:07;8.27;;;5.10;;
21038;SDS011;10678;51.002;4.786;2024-02-26T13:18:35;10.03;;;5.87;;
21038;SDS011;10678;51.002;4.786;2024-02-26T13:21:11;10.90;;;5.67;;
21038;SDS011;10678;51.002;4.786;2024-02-26T13:23:39;10.33;;;5.77;;
21038;SDS011;10678;51.002;4.786;2024-02-26T13:26:05;9.37;;;5.60;;
21038;SDS011;10678;51.002;4.786;2024-02-26T13:28:32;10.23;;;6.13;;
21038;SDS011;10678;51.002;4.786;2024-02-26T13:30:58;9.40;;;6.07;;
21038;SDS011;10678;51.002;4.786;2024-02-26T13:33:26;9.47;;;6.40;;
21038;SDS011;10678;51.002;4.786;2024-02-26T13:35:53;10.03;;;6.93;;
21038;SDS011;10678;51.002;4.786;2024-02-26T13:38:20;9.50;;;6.17;;
21038;SDS011;10678;51.002;4.786;2024-02-26T13:40:46;11.00;;;7.13;;
21038;SDS011;10678;51.002;4.786;2024-02-26T13:43:11;10.23;;;6.50;;
21038;SDS011;10678;51.002;4.786;2024-02-26T13:45:37;9.60;;;6.77;;
21038;SDS011;10678;51.002;4.786;2024-02-26T13:48:13;10.67;;;6.37;;
21038;SDS011;10678;51.002;4.786;2024-02-26T13:50:39;8.77;;;6.20;;
21038;SDS011;10678;51.002;4.786;2024-02-26T13:53:10;13.60;;;6.63;;
21038;SDS011;10678;51.002;4.786;2024-02-26T13:55:36;10.77;;;7.60;;
21038;SDS011;10678;51.002;4.786;2024-02-26T13:58:01;11.93;;;6.83;;
21038;SDS011;10678;51.002;4.786;2024-02-26T14:00:28;11.77;;;7.53;;
21038;SDS011;10678;51.002;4.786;2024-02-26T14:02:58;10.20;;;6.67;;
21038;SDS011;10678;51.002;4.786;2024-02-26T14:05:24;10.83;;;6.83;;
21038;SDS011;10678;51.002;4.786;2024-02-26T14:07:50;10.63;;;7.13;;
21038;SDS011;10678;51.002;4.786;2024-02-26T14:10:15;12.53;;;6.63;;
21038;SDS011;10678;51.002;4.786;2024-02-26T14:12:41;12.23;;;7.03;;
21038;SDS011;10678;51.002;4.786;2024-02-26T14:15:07;10.70;;;6.67;;
21038;SDS011;10678;51.002;4.786;2024-02-26T14:17:34;14.70;;;7.10;;
21038;SDS011;10678;51.002;4.786;2024-02-26T14:20:00;11.53;;;6.80;;
21038;SDS011;10678;51.002;4.786;2024-02-26T14:22:25;11.30;;;6.60;;
21038;SDS011;10678;51.002;4.786;2024-02-26T14:24:52;12.60;;;7.17;;
21038;SDS011;10678;51.002;4.786;2024-02-26T14:27:18;11.50;;;6.70;;
21038;SDS011;10678;51.002;4.786;2024-02-26T14:29:47;11.90;;;6.70;;
21038;SDS011;10678;51.002;4.786;2024-02-26T14:32:13;10.40;;;6.37;;
21038;SDS011;10678;51.002;4.786;2024-02-26T14:34:38;11.73;;;6.80;;
21038;SDS011;10678;51.002;4.786;2024-02-26T14:37:04;9.83;;;6.17;;
21038;SDS011;10678;51.002;4.786;2024-02-26T14:39:33;11.67;;;6.23;;
21038;SDS011;10678;51.002;4.786;2024-02-26T14:41:59;10.17;;;5.90;;
21038;SDS011;10678;51.002;4.786;2024-02-26T14:44:25;12.87;;;6.77;;
21038;SDS011;10678;51.002;4.786;2024-02-26T14:46:51;11.77;;;6.37;;
21038;SDS011;10678;51.002;4.786;2024-02-26T14:49:17;10.13;;;6.20;;